In Rescue
 
Open Full Screen Window  High Contrast Mode
Wind Gusting 22 knots
15
May 27, 2024 2:05 PM EDT
Weather Information
Wind Direction
  220 °
Wind Speed
  15 kt (17 mph)
Wind Gust
  22 kt (25 mph)
Altimeter
29.68 in
Visibility
10 SM
Temperature
22° C
72° F
Dewpoint
14° C
57° F
Humidity
60%
Sky Condition
Broken @ 4,800 ft
Broken @ 3,800 ft
VFR

METAR KDLZ 271805Z AUTO 22015G22KT 10SM BKN038 BKN048 22/14 A2968 RMK AO2

FAA Disclaimer: The data displayed is for advisory purposes only and is not to be used for flight planning or operations.